White Tower, Kentucky
Current Conditions -  °F | °C
As of 5:52 PM on Friday 19 Dec 2014 (Local Time) from KCVG Reporting Station
Overcast Overcast  
Wind Chill: 30°   Ceiling: 2300
Heat Index: 30°   Visibility: 10mi
Dew Point: 19°   Wind: 3mph
Humidity: 64%   Direction: 280°W
Pressure: 30.29"   Gusts: NA
Location:  38.9286°N, 84.5381°W
Report Text: KCVG 192252Z 28003KT 10SM OVC023 M01/M07 A3029 RMK AO2 SLP265 T10111072
Loading
Personal Weather Stations






























Interactive Weather Map New forecast layout! Learn more

10-Day Weather Forecast

Advertisements
Track Severe Weather on mobile